Time;durP1;ratioP1;P1;durP2;ratioP2;P2;SDS_P1;SDS_P2;PMS_P1;PMS_P2;Temp;Humidity;BMP_temperature;BMP_pressure;BME280_temperature;BME280_humidity;BME280_pressure;Samples;Min_cycle;Max_cycle;Signal;HPM_P1;HPM_P2
2023/01/22 13:59:43;;;;;;;;;;;4.40;99.90;;;;;;4919213;29;20000;-89
2023/01/22 14:02:23;;;;;;;;;;;4.30;99.90;;;;;;4931961;29;19919;-89
2023/01/22 14:29:48;;;;;;;;;;;;;;;;;;;;;
2023/01/22 14:38:44;;;;;;;;;;;4.40;99.90;;;;;;4898221;29;19911;-91
2023/01/22 14:44:21;;;;;;;;;;;4.40;99.90;;;;;;4894917;29;19927;-91
2023/01/22 14:46:49;;;;;;;;;;;4.50;99.90;;;;;;4887862;29;19920;-90
2023/01/22 14:49:23;;;;;;;;;;;4.50;99.90;;;;;;4932123;29;19998;-90
2023/01/22 14:52:03;;;;;;;;;;;4.40;99.90;;;;;;4935550;29;19970;-90
2023/01/22 15:00:13;;;;;;;;;;;4.40;99.90;;;;;;4916737;29;19939;-90
2023/01/22 15:02:43;;;;;;;;;;;4.40;99.90;;;;;;4919707;29;19911;-90
2023/01/22 15:05:12;;;;;;;;;;;4.50;99.90;;;;;;4917794;29;19911;-92
2023/01/22 15:10:32;;;;;;;;;;;4.50;99.90;;;;;;4892103;29;19967;-92
2023/01/22 15:12:57;;;;;;;;;;;4.40;99.90;;;;;;4897955;29;19912;-92
2023/01/22 15:18:14;;;;;;;;;;;4.50;99.90;;;;;;4897224;29;20294;-92
2023/01/22 15:20:56;;;;;;;;;;;;;;;;;;;;;
2023/01/22 15:23:27;;;;;;;;;;;4.30;99.90;;;;;;4921870;29;19911;-92
2023/01/22 15:26:04;;;;;;;;;;;4.30;99.90;;;;;;4920668;29;20325;-91
2023/01/22 15:28:32;;;;;;;;;;;4.40;99.90;;;;;;4920901;29;19987;-92
2023/01/22 15:31:06;;;;;;;;;;;4.40;99.90;;;;;;4921025;29;19918;-91
2023/01/22 15:33:46;;;;;;;;;;;4.50;99.90;;;;;;4920999;29;19915;-91
2023/01/22 15:36:17;;;;;;;;;;;4.50;99.90;;;;;;4920229;29;19917;-91
2023/01/22 15:38:50;;;;;;;;;;;4.40;99.90;;;;;;4920541;29;19918;-91
2023/01/22 15:41:26;;;;;;;;;;;4.40;99.90;;;;;;4907489;29;19919;-91
2023/01/22 15:44:04;;;;;;;;;;;4.40;99.90;;;;;;4912840;29;20392;-92
2023/01/22 15:46:40;;;;;;;;;;;4.40;99.90;;;;;;4906821;29;19915;-91
2023/01/22 15:49:07;;;;;;;;;;;4.40;99.90;;;;;;4902530;29;19946;-91
2023/01/22 15:51:33;;;;;;;;;;;4.40;99.90;;;;;;4901181;29;19911;-91
2023/01/22 16:51:47;;;;;;;;;;;4.40;99.90;;;;;;4919070;29;19946;-88
2023/01/22 16:54:23;;;;;;;;;;;4.40;99.90;;;;;;4901501;29;20366;-90
2023/01/22 16:56:48;;;;;;;;;;;4.40;99.90;;;;;;4915691;29;19970;-88
2023/01/22 16:59:14;;;;;;;;;;;4.40;99.90;;;;;;4918609;29;20332;-88
2023/01/22 17:17:12;;;;;;;;;;;4.40;99.90;;;;;;4871433;29;19923;-89
2023/01/22 17:22:47;;;;;;;;;;;4.50;99.90;;;;;;4858507;29;20033;-86
2023/01/22 17:28:46;;;;;;;;;;;4.50;99.90;;;;;;4847588;29;20004;-90
2023/01/22 17:31:20;;;;;;;;;;;4.50;99.90;;;;;;4844040;29;19964;-88
2023/01/22 17:41:46;;;;;;;;;;;4.50;99.90;;;;;;4917968;29;19927;-90
2023/01/22 17:44:40;;;;;;;;;;;4.50;99.90;;;;;;4935243;29;19921;-90
2023/01/22 17:48:03;;;;;;;;;;;;;;;;;;;;;
2023/01/22 17:53:23;;;;;;;;;;;4.60;99.90;;;;;;4916587;29;20415;-90
2023/01/22 17:56:02;;;;;;;;;;;4.50;99.90;;;;;;4900855;29;20001;-90
2023/01/22 18:11:05;;;;;;;;;;;4.40;99.90;;;;;;4906454;29;19915;-90
2023/01/22 18:19:54;;;;;;;;;;;4.50;99.90;;;;;;4871766;29;19912;-88
2023/01/22 18:22:20;;;;;;;;;;;4.40;99.90;;;;;;4917496;29;19951;-85
2023/01/22 18:24:45;;;;;;;;;;;4.50;99.90;;;;;;4916647;29;19915;-85
2023/01/22 18:27:11;;;;;;;;;;;4.50;99.90;;;;;;4915685;29;19921;-85
2023/01/22 18:29:39;;;;;;;;;;;4.50;99.90;;;;;;4917691;29;19915;-91
2023/01/22 18:32:05;;;;;;;;;;;4.50;99.90;;;;;;4915308;29;19921;-85
2023/01/22 18:34:30;;;;;;;;;;;4.50;99.90;;;;;;4918050;29;19994;-86
2023/01/22 18:36:56;;;;;;;;;;;4.50;99.90;;;;;;4919708;29;19922;-86
2023/01/22 18:39:22;;;;;;;;;;;4.50;99.90;;;;;;4918671;29;19962;-86
2023/01/22 18:41:50;;;;;;;;;;;4.60;99.90;;;;;;4917533;29;19930;-86
2023/01/22 18:44:17;;;;;;;;;;;4.60;99.90;;;;;;4917430;29;20677;-86
2023/01/22 18:46:46;;;;;;;;;;;4.60;99.90;;;;;;4917608;29;19915;-84
2023/01/22 18:49:13;;;;;;;;;;;4.60;99.90;;;;;;4917983;29;19915;-86
2023/01/22 18:51:40;;;;;;;;;;;4.60;99.90;;;;;;4917563;29;19926;-84
2023/01/22 18:54:06;;;;;;;;;;;4.60;99.90;;;;;;4919696;29;19921;-84
2023/01/22 18:56:32;;;;;;;;;;;4.60;99.90;;;;;;4917960;29;20006;-86
2023/01/22 18:58:58;;;;;;;;;;;4.60;99.90;;;;;;4918256;29;19912;-86
2023/01/22 19:01:28;;;;;;;;;;;4.60;99.90;;;;;;4917949;29;19938;-86
2023/01/22 19:03:55;;;;;;;;;;;4.60;99.90;;;;;;4918828;29;20379;-86
2023/01/22 19:06:22;;;;;;;;;;;4.60;99.90;;;;;;4918561;29;19922;-84
2023/01/22 19:08:52;;;;;;;;;;;4.70;99.90;;;;;;4918177;29;19966;-84
2023/01/22 19:11:18;;;;;;;;;;;4.60;99.90;;;;;;4919720;29;19915;-86
2023/01/22 19:13:49;;;;;;;;;;;4.60;99.90;;;;;;4918167;29;19915;-85
2023/01/22 19:16:15;;;;;;;;;;;4.60;99.90;;;;;;4918252;29;19912;-85
2023/01/22 19:18:54;;;;;;;;;;;4.60;99.90;;;;;;4919493;29;19920;-84
2023/01/22 19:21:20;;;;;;;;;;;4.60;99.90;;;;;;4918105;29;19923;-86
2023/01/22 19:23:47;;;;;;;;;;;4.50;99.90;;;;;;4918557;29;20334;-83
2023/01/22 19:26:22;;;;;;;;;;;4.60;99.90;;;;;;4918889;29;19950;-86
2023/01/22 19:28:48;;;;;;;;;;;4.60;99.90;;;;;;4918567;29;19918;-83
2023/01/22 19:31:18;;;;;;;;;;;4.60;99.90;;;;;;4918047;29;19915;-84
2023/01/22 19:33:44;;;;;;;;;;;4.60;99.90;;;;;;4918344;29;19916;-85
2023/01/22 19:36:10;;;;;;;;;;;4.60;99.90;;;;;;4918098;29;19938;-84
2023/01/22 19:38:36;;;;;;;;;;;4.60;99.90;;;;;;4898670;29;19920;-85
2023/01/22 19:41:02;;;;;;;;;;;4.60;99.90;;;;;;4907727;29;20289;-84
2023/01/22 19:43:28;;;;;;;;;;;4.60;99.90;;;;;;4918405;29;19923;-83
2023/01/22 19:45:53;;;;;;;;;;;4.60;99.90;;;;;;4916371;29;19915;-86
2023/01/22 19:48:20;;;;;;;;;;;4.70;99.90;;;;;;4918136;29;19920;-85
2023/01/22 19:50:45;;;;;;;;;;;4.70;99.90;;;;;;4916424;29;20001;-84
2023/01/22 19:53:11;;;;;;;;;;;4.60;99.90;;;;;;4914935;29;19923;-85
2023/01/22 19:55:37;;;;;;;;;;;4.60;99.90;;;;;;4915469;29;19911;-85
2023/01/22 19:58:03;;;;;;;;;;;4.70;99.90;;;;;;4915372;29;19922;-83
2023/01/22 20:00:29;;;;;;;;;;;4.70;99.90;;;;;;4915516;29;20352;-86
2023/01/22 20:02:54;;;;;;;;;;;4.60;99.90;;;;;;4914972;29;19915;-83
2023/01/22 20:05:20;;;;;;;;;;;4.60;99.90;;;;;;4915335;29;19921;-84
2023/01/22 20:07:53;;;;;;;;;;;4.60;99.90;;;;;;4916946;29;20004;-84
2023/01/22 20:10:19;;;;;;;;;;;4.60;99.90;;;;;;4920377;29;19923;-84
2023/01/22 20:13:08;;;;;;;;;;;;;;;;;;;;;
2023/01/22 20:15:49;;;;;;;;;;;4.70;99.90;;;;;;4919674;29;20262;-83
2023/01/22 20:18:23;;;;;;;;;;;4.70;99.90;;;;;;4918864;29;19915;-85
2023/01/22 20:21:04;;;;;;;;;;;4.70;99.90;;;;;;4936617;29;20296;-83
2023/01/22 20:23:43;;;;;;;;;;;4.70;99.90;;;;;;4918712;29;19950;-84
2023/01/22 20:26:16;;;;;;;;;;;4.70;99.90;;;;;;4919143;29;19915;-83
2023/01/22 20:29:12;;;;;;;;;;;4.70;99.90;;;;;;4919594;29;20343;-84
2023/01/22 20:32:03;;;;;;;;;;;4.60;99.90;;;;;;4918679;29;19915;-84
2023/01/22 20:34:28;;;;;;;;;;;4.60;99.90;;;;;;4918406;29;19967;-83
2023/01/22 20:36:54;;;;;;;;;;;4.70;99.90;;;;;;4918446;29;20361;-84
2023/01/22 20:39:38;;;;;;;;;;;;;;;;;;;;;
2023/01/22 20:42:10;;;;;;;;;;;4.60;99.90;;;;;;4911409;29;20304;-84
2023/01/22 20:45:25;;;;;;;;;;;4.60;99.90;;;;;;4918362;29;19939;-84
2023/01/22 20:48:04;;;;;;;;;;;;;;;;;;;;;
2023/01/22 20:50:53;;;;;;;;;;;4.70;99.90;;;;;;4919511;29;19915;-83
2023/01/22 20:53:27;;;;;;;;;;;4.60;99.90;;;;;;4910838;29;19911;-84
2023/01/22 20:59:06;;;;;;;;;;;4.50;99.90;;;;;;4913597;29;19923;-85
2023/01/22 21:01:37;;;;;;;;;;;4.60;99.90;;;;;;4919402;29;19918;-84
2023/01/22 21:04:11;;;;;;;;;;;4.50;99.90;;;;;;4922614;29;19922;-83
2023/01/22 21:07:08;;;;;;;;;;;4.50;99.90;;;;;;4918096;29;20024;-84
2023/01/22 21:09:39;;;;;;;;;;;4.50;99.90;;;;;;4917712;29;19922;-84
2023/01/22 21:14:56;;;;;;;;;;;4.50;99.90;;;;;;4919350;29;19915;-84
2023/01/22 21:18:18;;;;;;;;;;;4.50;99.90;;;;;;4918116;29;19922;-84
2023/01/22 21:21:08;;;;;;;;;;;4.50;99.90;;;;;;4899471;29;19919;-84
2023/01/22 21:23:47;;;;;;;;;;;4.50;99.90;;;;;;4897466;29;20393;-84
2023/01/22 21:26:23;;;;;;;;;;;4.50;99.90;;;;;;4918303;29;19915;-84
2023/01/22 21:29:03;;;;;;;;;;;4.40;99.90;;;;;;4917753;29;19951;-83
2023/01/22 21:31:37;;;;;;;;;;;4.40;99.90;;;;;;4917618;29;19916;-84
2023/01/22 21:34:12;;;;;;;;;;;4.50;99.90;;;;;;4917692;29;20365;-84
2023/01/22 21:37:00;;;;;;;;;;;4.50;99.90;;;;;;4904785;29;20401;-83
2023/01/22 21:39:31;;;;;;;;;;;4.50;99.90;;;;;;4919031;29;19911;-84
2023/01/22 21:47:26;;;;;;;;;;;4.50;99.90;;;;;;4918921;29;20076;-84
2023/01/22 21:49:52;;;;;;;;;;;4.50;99.90;;;;;;4917278;29;20030;-83
2023/01/22 21:52:17;;;;;;;;;;;4.50;99.90;;;;;;4918341;29;19922;-84
2023/01/22 21:54:43;;;;;;;;;;;4.50;99.90;;;;;;4936145;23;19934;-83
2023/01/22 21:57:13;;;;;;;;;;;4.60;99.90;;;;;;4945862;29;19950;-84
2023/01/22 21:59:39;;;;;;;;;;;4.50;99.90;;;;;;4937615;29;19915;-83
2023/01/22 22:02:05;;;;;;;;;;;4.50;99.90;;;;;;4958276;29;19989;-84
2023/01/22 22:04:30;;;;;;;;;;;4.50;99.90;;;;;;4956305;28;19915;-84
2023/01/22 22:06:56;;;;;;;;;;;4.50;99.90;;;;;;4950882;29;19985;-83
2023/01/22 22:09:23;;;;;;;;;;;4.50;99.90;;;;;;4956911;29;19915;-85
2023/01/22 22:11:48;;;;;;;;;;;4.60;99.90;;;;;;4946507;28;20007;-84
2023/01/22 22:14:15;;;;;;;;;;;4.60;99.90;;;;;;4937678;29;19969;-84
2023/01/22 22:16:41;;;;;;;;;;;4.60;99.90;;;;;;4952506;29;19938;-84
2023/01/22 22:19:07;;;;;;;;;;;4.50;99.90;;;;;;4944433;29;19911;-84
2023/01/22 22:21:33;;;;;;;;;;;4.60;99.90;;;;;;4951438;29;19943;-84
2023/01/22 22:23:58;;;;;;;;;;;4.50;99.90;;;;;;4952346;29;19919;-83
2023/01/22 22:26:24;;;;;;;;;;;4.50;99.90;;;;;;4952626;29;19930;-83
2023/01/22 22:28:49;;;;;;;;;;;4.50;99.90;;;;;;4952947;29;19926;-84
2023/01/22 22:31:15;;;;;;;;;;;4.50;99.90;;;;;;4957889;29;19921;-84
2023/01/22 22:33:42;;;;;;;;;;;4.50;99.90;;;;;;4950009;29;20389;-84
2023/01/22 22:36:07;;;;;;;;;;;4.50;99.90;;;;;;4948024;29;19970;-84
2023/01/22 22:38:33;;;;;;;;;;;4.50;99.90;;;;;;4948298;29;19915;-83
2023/01/22 22:41:00;;;;;;;;;;;4.50;99.90;;;;;;4961598;29;19918;-83
2023/01/22 22:43:26;;;;;;;;;;;4.50;99.90;;;;;;4952436;29;20360;-84
2023/01/22 22:45:51;;;;;;;;;;;4.40;99.90;;;;;;4952133;29;19919;-84
2023/01/22 22:48:18;;;;;;;;;;;4.50;99.90;;;;;;4944739;29;19934;-83
2023/01/22 22:50:43;;;;;;;;;;;4.50;99.90;;;;;;4958498;29;19961;-84
2023/01/22 22:53:09;;;;;;;;;;;4.50;99.90;;;;;;4958603;29;20110;-84
2023/01/22 22:55:38;;;;;;;;;;;4.50;99.90;;;;;;4943781;29;20395;-83
2023/01/22 22:58:04;;;;;;;;;;;4.50;99.90;;;;;;4957251;28;19961;-84
2023/01/22 23:00:29;;;;;;;;;;;4.50;99.90;;;;;;4959996;28;19918;-84
2023/01/22 23:02:54;;;;;;;;;;;4.50;99.90;;;;;;4949055;29;20428;-83
2023/01/22 23:05:20;;;;;;;;;;;4.40;99.90;;;;;;4958684;28;19918;-83
2023/01/22 23:07:45;;;;;;;;;;;4.50;99.90;;;;;;4944410;29;19911;-84
2023/01/22 23:10:27;;;;;;;;;;;4.50;99.90;;;;;;4957235;29;19914;-84
2023/01/22 23:12:53;;;;;;;;;;;4.50;99.90;;;;;;4962673;29;19910;-83
2023/01/22 23:15:19;;;;;;;;;;;4.50;99.90;;;;;;4956117;28;19919;-84
2023/01/22 23:17:44;;;;;;;;;;;4.50;99.90;;;;;;4949143;29;20730;-85
2023/01/22 23:20:10;;;;;;;;;;;4.50;99.90;;;;;;4952302;29;19919;-83
2023/01/22 23:22:36;;;;;;;;;;;4.50;99.90;;;;;;4959511;29;20274;-84
2023/01/22 23:25:01;;;;;;;;;;;4.50;99.90;;;;;;4945736;29;19923;-83
2023/01/22 23:27:28;;;;;;;;;;;4.50;99.90;;;;;;4959591;28;19951;-84
2023/01/22 23:29:53;;;;;;;;;;;4.50;99.90;;;;;;4949930;29;19922;-83
2023/01/22 23:32:25;;;;;;;;;;;4.50;99.90;;;;;;4959755;28;19915;-84
2023/01/22 23:34:50;;;;;;;;;;;4.50;99.90;;;;;;4961689;28;20365;-83
2023/01/22 23:37:16;;;;;;;;;;;4.50;99.90;;;;;;4959018;28;19967;-83
2023/01/22 23:39:41;;;;;;;;;;;4.50;99.90;;;;;;4943242;29;19910;-83
2023/01/22 23:42:09;;;;;;;;;;;4.50;99.90;;;;;;4958871;28;19919;-83
2023/01/22 23:44:34;;;;;;;;;;;4.60;99.90;;;;;;4963220;28;19915;-84
2023/01/22 23:47:00;;;;;;;;;;;4.60;99.90;;;;;;4947602;29;19986;-84
2023/01/22 23:49:25;;;;;;;;;;;4.60;99.90;;;;;;4949761;29;19911;-83
2023/01/22 23:51:51;;;;;;;;;;;4.60;99.90;;;;;;4964397;29;19911;-84
2023/01/22 23:54:16;;;;;;;;;;;4.60;99.90;;;;;;4947561;29;19939;-84
2023/01/22 23:56:42;;;;;;;;;;;4.60;99.90;;;;;;4965116;29;19957;-83
2023/01/22 23:59:11;;;;;;;;;;;4.60;99.90;;;;;;4952021;29;19966;-84
